Terminal Aerodrome Forecast
Issued by NWS

Home | Current Version | Previous Version | Text Only | Print | Product List | Glossary On
Versions: 1 2 3 4 5 6 7 8 9 10 11 12 13 14 15 16 17 18 19 20 21 22 23 24 25 26 27 28 29 30 31 32 33 34 35 36 37 38 39
778
FTAK31 PANC 101127
TAFACV
TAF
PACV 101127Z 1012/1112 21010KT P6SM VCSH FEW050 BKN090 OVC110
     FM101600 09012KT P6SM -RA OVC035
      TEMPO 1016/1020 6SM -RASN BKN025
     FM102200 08010KT P6SM -SHRA FEW030 BKN050
     FM110300 07012KT P6SM -RA SCT020 OVC035=

USA.gov is the U.S. government's official web portal to all federal, state and local government web resources and services.